createdAt,value
2019-03-27T00:00:33.531Z,9.65
2019-03-27T00:03:03.215Z,8.80
2019-03-27T00:05:32.758Z,9.08
2019-03-27T00:08:02.296Z,9.13
2019-03-27T00:10:31.838Z,8.58
2019-03-27T00:13:01.385Z,9.00
2019-03-27T00:15:30.978Z,8.80
2019-03-27T00:18:00.515Z,8.70
2019-03-27T00:20:30.135Z,8.38
2019-03-27T00:22:59.687Z,10.35
2019-03-27T00:25:29.227Z,9.68
2019-03-27T00:27:58.782Z,9.53
2019-03-27T00:30:28.278Z,8.83
2019-03-27T00:32:57.727Z,9.83
2019-03-27T00:35:27.265Z,9.60
2019-03-27T00:37:56.798Z,10.35
2019-03-27T00:40:26.385Z,10.90
2019-03-27T00:42:55.993Z,11.20
2019-03-27T00:45:27.142Z,11.88
2019-03-27T00:47:56.825Z,11.60
2019-03-27T00:50:26.302Z,10.65
2019-03-27T00:52:55.842Z,10.35
2019-03-27T00:55:25.351Z,11.60
2019-03-27T00:57:54.887Z,11.22
2019-03-27T01:00:27.816Z,11.70
2019-03-27T01:02:57.546Z,12.18
2019-03-27T01:05:27.151Z,13.20
2019-03-27T01:07:56.739Z,12.43
2019-03-27T01:10:26.447Z,12.65
2019-03-27T01:12:55.966Z,12.30
2019-03-27T01:15:38.791Z,12.28
2019-03-27T01:17:56.944Z,12.05
2019-03-27T01:20:26.549Z,12.03
2019-03-27T01:22:56.246Z,11.43
2019-03-27T01:25:25.778Z,11.93
2019-03-27T01:27:55.227Z,12.33
2019-03-27T01:30:24.851Z,11.88
2019-03-27T01:32:54.467Z,12.23
2019-03-27T01:35:24.021Z,12.03
2019-03-27T01:37:53.568Z,12.03
2019-03-27T01:40:23.302Z,12.73
2019-03-27T01:42:52.841Z,12.53
2019-03-27T01:45:22.387Z,12.25
2019-03-27T01:47:51.937Z,11.73
2019-03-27T01:50:21.474Z,13.05
2019-03-27T01:52:51.175Z,13.00
2019-03-27T01:55:20.705Z,13.78
2019-03-27T01:57:50.281Z,13.40
2019-03-27T02:00:19.958Z,14.20
2019-03-27T02:02:49.572Z,13.98
2019-03-27T02:05:19.032Z,15.03
2019-03-27T02:07:48.555Z,14.07
2019-03-27T02:10:18.275Z,13.60
2019-03-27T02:12:47.872Z,14.25
2019-03-27T02:15:17.695Z,14.38
2019-03-27T02:17:47.228Z,15.15
2019-03-27T02:20:16.852Z,14.35
2019-03-27T02:22:46.562Z,15.95
2019-03-27T02:25:16.109Z,14.20
2019-03-27T02:27:45.811Z,15.23
2019-03-27T02:30:15.678Z,15.03
2019-03-27T02:32:45.371Z,16.32
2019-03-27T02:35:14.940Z,14.03
2019-03-27T02:37:44.492Z,15.80
2019-03-27T02:40:14.195Z,14.90
2019-03-27T02:42:43.760Z,14.85
2019-03-27T02:45:13.498Z,15.58
2019-03-27T02:47:43.171Z,15.05
2019-03-27T02:50:12.900Z,15.55
2019-03-27T02:52:42.437Z,16.10
2019-03-27T02:55:12.066Z,15.28
2019-03-27T02:57:41.658Z,16.35
2019-03-27T03:00:12.076Z,16.55
2019-03-27T03:02:41.757Z,15.93
2019-03-27T03:05:11.952Z,16.30
2019-03-27T03:07:41.628Z,16.17
2019-03-27T03:10:12.279Z,15.78
2019-03-27T03:12:41.895Z,16.17
2019-03-27T03:15:12.011Z,15.18
2019-03-27T03:17:41.472Z,16.80
2019-03-27T03:20:11.256Z,17.65
2019-03-27T03:22:40.872Z,16.37
2019-03-27T03:25:10.550Z,16.15
2019-03-27T03:27:40.164Z,15.65
2019-03-27T03:30:11.080Z,17.82
2019-03-27T03:32:40.785Z,15.95
2019-03-27T03:35:10.548Z,17.20
2019-03-27T03:37:40.174Z,17.00
2019-03-27T03:40:10.496Z,18.32
2019-03-27T03:42:40.041Z,17.25
2019-03-27T03:45:09.862Z,17.62
2019-03-27T03:47:39.574Z,18.35
2019-03-27T03:50:15.008Z,18.65
2019-03-27T03:52:45.991Z,17.42
2019-03-27T03:55:15.988Z,17.55
2019-03-27T03:57:46.366Z,18.02
2019-03-27T04:00:16.194Z,18.12
2019-03-27T04:02:46.393Z,17.95
2019-03-27T04:05:19.943Z,18.10
2019-03-27T04:07:49.554Z,18.65
2019-03-27T04:10:19.173Z,18.80
2019-03-27T04:12:48.781Z,18.65
2019-03-27T04:15:18.528Z,18.80
2019-03-27T04:17:48.064Z,17.95
2019-03-27T04:20:17.812Z,18.52
2019-03-27T04:22:47.447Z,18.60
2019-03-27T04:25:17.001Z,18.90
2019-03-27T04:27:46.709Z,19.32
2019-03-27T04:30:16.392Z,18.42
2019-03-27T04:32:45.931Z,20.75
2019-03-27T04:35:15.586Z,19.62
2019-03-27T04:37:45.126Z,18.15
2019-03-27T04:40:14.847Z,19.02
2019-03-27T04:42:44.450Z,20.15
2019-03-27T04:45:15.582Z,19.40
2019-03-27T04:47:45.172Z,20.08
2019-03-27T04:50:14.869Z,21.50
2019-03-27T04:52:44.347Z,19.05
2019-03-27T04:55:14.029Z,18.57
2019-03-27T04:57:43.566Z,20.17
2019-03-27T05:00:13.718Z,19.17
2019-03-27T05:02:43.333Z,20.30
2019-03-27T05:05:13.020Z,19.00
2019-03-27T05:07:42.731Z,19.87
2019-03-27T05:10:13.319Z,19.98
2019-03-27T05:12:42.973Z,19.07
2019-03-27T05:15:12.605Z,20.25
2019-03-27T05:17:46.213Z,19.67
2019-03-27T05:20:13.490Z,19.32
2019-03-27T05:22:43.082Z,17.27
2019-03-27T05:25:12.771Z,18.98
2019-03-27T05:27:42.235Z,19.35
2019-03-27T05:30:12.126Z,18.10
2019-03-27T05:32:41.599Z,19.07
2019-03-27T05:35:11.314Z,19.85
2019-03-27T05:37:40.876Z,19.70
2019-03-27T05:40:10.514Z,20.95
2019-03-27T05:42:39.976Z,19.82
2019-03-27T05:45:09.859Z,20.17
2019-03-27T05:47:39.494Z,20.25
2019-03-27T05:50:09.188Z,22.05
2019-03-27T05:52:38.726Z,21.80
2019-03-27T05:55:08.361Z,20.27
2019-03-27T05:57:37.834Z,22.52
2019-03-27T06:00:07.866Z,21.17
2019-03-27T06:02:37.416Z,19.98
2019-03-27T06:05:07.516Z,21.42
2019-03-27T06:07:36.984Z,21.68
2019-03-27T06:10:07.328Z,21.70
2019-03-27T06:12:36.862Z,20.30
2019-03-27T06:15:06.685Z,22.27
2019-03-27T06:17:36.290Z,21.20
2019-03-27T06:20:06.206Z,21.35
2019-03-27T06:22:35.717Z,22.20
2019-03-27T06:25:05.949Z,21.87
2019-03-27T06:27:35.479Z,21.50
2019-03-27T06:30:05.685Z,21.17
2019-03-27T06:32:35.573Z,20.23
2019-03-27T06:35:05.866Z,21.50
2019-03-27T06:37:35.427Z,20.35
2019-03-27T06:40:05.601Z,19.45
2019-03-27T06:42:35.151Z,21.65
2019-03-27T06:45:05.094Z,21.02
2019-03-27T06:47:34.706Z,20.02
2019-03-27T06:50:04.814Z,21.12
2019-03-27T06:52:34.337Z,21.17
2019-03-27T06:55:05.413Z,19.62
2019-03-27T06:57:34.983Z,21.10
2019-03-27T07:00:05.604Z,21.80
2019-03-27T07:02:35.083Z,21.02
2019-03-27T07:05:05.222Z,21.68
2019-03-27T07:07:34.712Z,20.45
2019-03-27T07:10:04.927Z,19.30
2019-03-27T07:12:34.499Z,21.55
2019-03-27T07:15:04.573Z,21.37
2019-03-27T07:17:34.115Z,21.27
2019-03-27T07:20:04.218Z,22.15
2019-03-27T07:22:33.801Z,22.13
2019-03-27T07:25:03.575Z,23.27
2019-03-27T07:27:33.091Z,21.33
2019-03-27T07:30:02.791Z,22.45
2019-03-27T07:32:32.396Z,21.97
2019-03-27T07:35:01.927Z,22.75
2019-03-27T07:37:31.468Z,24.00
2019-03-27T07:40:01.192Z,24.32
2019-03-27T07:42:30.959Z,22.25
2019-03-27T07:45:00.410Z,23.05
2019-03-27T07:47:29.891Z,23.22
2019-03-27T07:49:59.385Z,21.82
2019-03-27T07:52:29.019Z,23.55
2019-03-27T07:54:58.654Z,24.75
2019-03-27T07:57:28.354Z,26.50
2019-03-27T07:59:57.886Z,23.25
2019-03-27T08:02:27.423Z,22.35
2019-03-27T08:04:56.890Z,23.07
2019-03-27T08:07:27.298Z,23.92
2019-03-27T08:09:56.931Z,23.12
2019-03-27T08:12:26.502Z,24.37
2019-03-27T08:14:56.030Z,22.80
2019-03-27T08:17:25.647Z,22.17
2019-03-27T08:19:55.110Z,23.70
2019-03-27T08:22:24.700Z,23.12
2019-03-27T08:24:54.193Z,24.67
2019-03-27T08:27:23.731Z,24.27
2019-03-27T08:29:53.265Z,24.43
2019-03-27T08:32:22.772Z,24.23
2019-03-27T08:34:57.383Z,23.12
2019-03-27T08:37:26.911Z,22.55
2019-03-27T08:39:57.527Z,22.27
2019-03-27T08:42:27.125Z,22.75
2019-03-27T08:44:56.606Z,23.42
2019-03-27T08:47:26.094Z,22.60
2019-03-27T08:49:55.626Z,24.30
2019-03-27T08:52:25.306Z,22.60
2019-03-27T08:54:54.774Z,22.55
2019-03-27T08:57:24.389Z,22.22
2019-03-27T08:59:53.972Z,22.48
2019-03-27T09:02:23.592Z,21.65
2019-03-27T09:04:53.201Z,20.97
2019-03-27T09:07:22.806Z,20.82
2019-03-27T09:09:52.430Z,20.95
2019-03-27T09:12:22.039Z,21.68
2019-03-27T09:14:51.628Z,20.15
2019-03-27T09:17:21.479Z,21.17
2019-03-27T09:19:51.151Z,20.23
2019-03-27T09:22:20.635Z,19.55
2019-03-27T09:24:50.154Z,20.70
2019-03-27T09:27:19.778Z,22.27
2019-03-27T09:29:49.330Z,21.48
2019-03-27T09:32:18.787Z,21.25
2019-03-27T09:34:48.355Z,19.70
2019-03-27T09:37:17.817Z,20.15
2019-03-27T09:39:47.305Z,20.10
2019-03-27T09:42:16.779Z,18.50
2019-03-27T09:44:46.344Z,18.57
2019-03-27T09:47:15.966Z,18.65
2019-03-27T09:49:49.902Z,20.57
2019-03-27T09:52:16.753Z,18.45
2019-03-27T09:54:46.295Z,18.37
2019-03-27T09:57:15.825Z,17.98
2019-03-27T09:59:45.369Z,18.52
2019-03-27T10:02:14.898Z,18.35
2019-03-27T10:04:44.370Z,16.67
2019-03-27T10:07:13.946Z,15.32
2019-03-27T10:09:43.575Z,15.40
2019-03-27T10:12:13.074Z,15.35
2019-03-27T10:14:42.779Z,15.15
2019-03-27T10:17:12.316Z,15.65
2019-03-27T10:19:42.065Z,15.68
2019-03-27T10:22:11.594Z,15.85
2019-03-27T10:24:41.078Z,17.98
2019-03-27T10:27:10.743Z,18.65
2019-03-27T10:29:40.274Z,19.00
2019-03-27T10:32:09.874Z,17.98
2019-03-27T10:34:39.494Z,16.37
2019-03-27T10:37:09.037Z,18.92
2019-03-27T10:39:38.497Z,16.70
2019-03-27T10:42:08.057Z,16.42
2019-03-27T10:44:37.542Z,17.02
2019-03-27T10:47:07.222Z,15.70
2019-03-27T10:49:36.805Z,17.37
2019-03-27T10:52:06.367Z,15.88
2019-03-27T10:54:35.943Z,14.53
2019-03-27T10:57:05.553Z,16.45
2019-03-27T10:59:35.093Z,16.02
2019-03-27T11:02:04.637Z,16.25
2019-03-27T11:04:34.162Z,16.70
2019-03-27T11:07:03.736Z,15.88
2019-03-27T11:09:33.246Z,16.23
2019-03-27T11:12:02.858Z,15.93
2019-03-27T11:14:38.156Z,16.15
2019-03-27T11:17:03.797Z,16.52
2019-03-27T11:19:33.826Z,14.93
2019-03-27T11:22:03.705Z,16.97
2019-03-27T11:24:33.261Z,16.42
2019-03-27T11:27:02.833Z,14.83
2019-03-27T11:29:32.363Z,15.08
2019-03-27T11:32:02.009Z,15.48
2019-03-27T11:34:31.537Z,14.25
2019-03-27T11:37:01.283Z,14.47
2019-03-27T11:39:30.975Z,15.08
2019-03-27T11:42:01.028Z,14.03
2019-03-27T11:44:30.787Z,13.75
2019-03-27T11:47:00.268Z,13.80
2019-03-27T11:49:29.812Z,15.13
2019-03-27T11:51:59.421Z,13.75
2019-03-27T11:54:28.950Z,14.95
2019-03-27T11:56:58.654Z,14.30
2019-03-27T11:59:28.292Z,13.80
2019-03-27T12:01:57.932Z,13.55
2019-03-27T12:04:27.552Z,13.15
2019-03-27T12:06:57.087Z,14.10
2019-03-27T12:09:26.639Z,13.32
2019-03-27T12:11:56.259Z,12.82
2019-03-27T12:14:25.866Z,13.72
2019-03-27T12:16:55.568Z,12.10
2019-03-27T12:19:25.030Z,13.98
2019-03-27T12:21:54.968Z,12.40
2019-03-27T12:24:24.718Z,13.88
2019-03-27T12:26:54.251Z,13.22
2019-03-27T12:29:23.836Z,13.10
2019-03-27T12:31:53.445Z,13.48
2019-03-27T12:34:23.108Z,15.25
2019-03-27T12:36:52.714Z,14.25
2019-03-27T12:39:22.327Z,13.68
2019-03-27T12:41:51.910Z,13.25
2019-03-27T12:44:21.594Z,12.55
2019-03-27T12:46:52.031Z,13.43
2019-03-27T12:49:21.620Z,13.03
2019-03-27T12:51:51.334Z,13.62
2019-03-27T12:54:20.938Z,14.75
2019-03-27T12:56:50.404Z,12.80
2019-03-27T12:59:20.174Z,12.98
2019-03-27T13:01:49.640Z,12.85
2019-03-27T13:04:19.099Z,12.63
2019-03-27T13:06:48.576Z,12.70
2019-03-27T13:09:18.197Z,13.00
2019-03-27T13:11:47.723Z,13.05
2019-03-27T13:14:17.306Z,12.28
2019-03-27T13:16:46.784Z,12.55
2019-03-27T13:19:16.395Z,12.80
2019-03-27T13:21:45.944Z,12.75
2019-03-27T13:24:15.585Z,12.07
2019-03-27T13:26:45.057Z,11.12
2019-03-27T13:29:14.571Z,11.75
2019-03-27T13:31:44.224Z,11.63
2019-03-27T13:34:13.830Z,11.60
2019-03-27T13:36:47.799Z,10.65
2019-03-27T13:39:17.441Z,11.25
2019-03-27T13:41:47.084Z,12.10
2019-03-27T13:44:16.617Z,11.00
2019-03-27T13:46:46.232Z,11.05
2019-03-27T13:49:15.856Z,12.95
2019-03-27T13:51:45.463Z,11.60
2019-03-27T13:54:14.935Z,11.75
2019-03-27T13:56:44.622Z,12.33
2019-03-27T13:59:14.161Z,11.35
2019-03-27T14:01:43.887Z,12.90
2019-03-27T14:04:13.522Z,11.70
2019-03-27T14:06:44.758Z,12.35
2019-03-27T14:09:14.255Z,12.00
2019-03-27T14:11:43.791Z,14.45
2019-03-27T14:14:13.430Z,10.98
2019-03-27T14:16:42.890Z,11.80
2019-03-27T14:19:12.388Z,11.25
2019-03-27T14:21:53.935Z,11.03
2019-03-27T14:24:13.354Z,12.40
2019-03-27T14:26:45.411Z,10.32
2019-03-27T14:29:14.217Z,11.57
2019-03-27T14:31:43.829Z,12.47
2019-03-27T14:34:13.465Z,11.33
2019-03-27T14:36:43.094Z,12.43
2019-03-27T14:39:12.785Z,11.55
2019-03-27T14:41:42.395Z,11.63
2019-03-27T14:44:11.850Z,12.58
2019-03-27T14:46:44.281Z,11.03
2019-03-27T14:49:15.046Z,11.35
2019-03-27T14:51:45.857Z,11.33
2019-03-27T14:54:16.834Z,11.10
2019-03-27T15:00:07.350Z,10.93
2019-03-27T15:02:57.328Z,11.40
2019-03-27T15:09:17.588Z,10.82
2019-03-27T15:12:12.421Z,11.40
2019-03-27T15:14:43.657Z,11.53
2019-03-27T15:19:58.362Z,10.50
2019-03-27T15:22:56.642Z,10.35
2019-03-27T15:25:57.833Z,11.15
2019-03-27T15:29:17.431Z,10.82
2019-03-27T15:32:12.511Z,11.57
2019-03-27T15:34:46.556Z,10.23
2019-03-27T15:37:23.407Z,10.55
2019-03-27T15:39:56.244Z,10.45
2019-03-27T15:42:29.795Z,10.70
2019-03-27T15:45:00.037Z,10.93
2019-03-27T15:47:30.225Z,10.23
2019-03-27T15:50:02.092Z,10.38
2019-03-27T15:52:38.408Z,10.10
2019-03-27T15:55:20.175Z,10.32
2019-03-27T15:58:22.069Z,9.60
2019-03-27T16:00:48.273Z,9.93
2019-03-27T16:03:50.643Z,10.88
2019-03-27T16:06:23.628Z,10.93
2019-03-27T16:08:56.618Z,10.38
2019-03-27T16:14:54.497Z,11.20
2019-03-27T16:15:37.242Z,10.40
2019-03-27T16:17:28.154Z,11.12
2019-03-27T16:20:23.875Z,10.35
2019-03-27T16:22:50.617Z,10.32
2019-03-27T16:25:18.538Z,10.08
2019-03-27T16:27:48.034Z,10.72
2019-03-27T16:30:17.761Z,10.40
2019-03-27T16:32:47.519Z,9.48
2019-03-27T16:35:17.144Z,10.45
2019-03-27T16:37:46.650Z,10.10
2019-03-27T16:40:18.535Z,9.35
2019-03-27T16:42:48.118Z,9.93
2019-03-27T16:45:18.259Z,9.33
2019-03-27T16:47:48.126Z,10.45
2019-03-27T16:50:18.115Z,8.90
2019-03-27T16:52:47.893Z,8.90
2019-03-27T16:55:17.566Z,9.90
2019-03-27T16:57:47.094Z,9.23
2019-03-27T17:00:16.831Z,8.18
2019-03-27T17:02:46.295Z,9.03
2019-03-27T17:05:16.105Z,8.60
2019-03-27T17:07:45.573Z,9.33
2019-03-27T17:10:15.234Z,9.18
2019-03-27T17:12:44.850Z,9.08
2019-03-27T17:15:14.488Z,9.28
2019-03-27T17:17:43.959Z,9.08
2019-03-27T17:20:13.786Z,9.60
2019-03-27T17:22:43.235Z,9.25
2019-03-27T17:25:12.878Z,10.65
2019-03-27T17:27:42.422Z,10.08
2019-03-27T17:30:12.868Z,9.30
2019-03-27T17:32:42.570Z,9.58
2019-03-27T17:35:12.266Z,9.25
2019-03-27T17:37:41.901Z,9.00
2019-03-27T17:40:12.087Z,9.55
2019-03-27T17:42:41.717Z,8.65
2019-03-27T17:45:11.373Z,9.35
2019-03-27T17:47:40.912Z,9.65
2019-03-27T17:50:10.694Z,9.10
2019-03-27T17:52:40.218Z,9.55
2019-03-27T17:55:10.491Z,10.23
2019-03-27T17:57:40.095Z,8.88
2019-03-27T18:00:10.973Z,8.95
2019-03-27T18:02:40.618Z,8.88
2019-03-27T18:05:10.724Z,9.65
2019-03-27T18:07:40.243Z,9.35
2019-03-27T18:10:28.635Z,9.48
2019-03-27T18:12:58.449Z,8.78
2019-03-27T18:15:28.056Z,9.98
2019-03-27T18:17:57.683Z,9.98
2019-03-27T18:20:27.298Z,10.40
2019-03-27T18:22:56.966Z,9.13
2019-03-27T18:25:45.429Z,9.25
2019-03-27T18:28:15.018Z,8.45
2019-03-27T18:30:44.713Z,9.45
2019-03-27T18:33:14.390Z,8.65
2019-03-27T18:35:43.935Z,8.98
2019-03-27T18:38:13.641Z,9.50
2019-03-27T18:40:43.150Z,9.98
2019-03-27T18:43:12.768Z,10.38
2019-03-27T18:45:42.560Z,9.55
2019-03-27T18:48:12.299Z,10.10
2019-03-27T18:50:42.084Z,10.43
2019-03-27T18:53:11.707Z,9.98
2019-03-27T18:55:41.454Z,10.15
2019-03-27T18:58:11.025Z,9.63
2019-03-27T19:00:40.692Z,10.25
2019-03-27T19:03:10.272Z,9.78
2019-03-27T19:05:39.906Z,9.80
2019-03-27T19:08:09.739Z,11.38
2019-03-27T19:10:39.321Z,12.07
2019-03-27T19:13:08.989Z,11.43
2019-03-27T19:15:38.615Z,12.30
2019-03-27T19:18:08.217Z,16.48
2019-03-27T19:20:37.833Z,16.32
2019-03-27T19:23:07.685Z,15.32
2019-03-27T19:25:37.362Z,14.33
2019-03-27T19:28:07.222Z,13.40
2019-03-27T19:30:37.084Z,13.20
2019-03-27T19:33:06.767Z,13.83
2019-03-27T19:35:36.515Z,15.25
2019-03-27T19:38:06.269Z,15.50
2019-03-27T19:40:35.992Z,13.25
2019-03-27T19:43:05.770Z,12.73
2019-03-27T19:45:35.446Z,12.45
2019-03-27T19:48:05.191Z,11.88
2019-03-27T19:50:34.809Z,12.20
2019-03-27T19:53:04.537Z,11.40
2019-03-27T19:55:34.207Z,13.28
2019-03-27T19:58:04.039Z,11.57
2019-03-27T20:00:33.887Z,12.23
2019-03-27T20:03:03.695Z,13.43
2019-03-27T20:05:33.463Z,12.70
2019-03-27T20:08:03.193Z,12.23
2019-03-27T20:10:33.030Z,12.70
2019-03-27T20:13:02.870Z,12.00
2019-03-27T20:15:32.582Z,11.55
2019-03-27T20:18:02.325Z,12.07
2019-03-27T20:20:32.130Z,12.25
2019-03-27T20:23:14.193Z,12.68
2019-03-27T20:25:33.247Z,13.45
2019-03-27T20:28:03.175Z,12.45
2019-03-27T20:30:32.880Z,12.55
2019-03-27T20:33:02.578Z,12.75
2019-03-27T20:35:32.227Z,12.20
2019-03-27T20:38:02.060Z,12.90
2019-03-27T20:40:31.754Z,12.65
2019-03-27T20:43:01.409Z,12.35
2019-03-27T20:45:31.188Z,12.60
2019-03-27T20:48:01.334Z,11.97
2019-03-27T20:50:30.988Z,12.03
2019-03-27T20:53:00.710Z,12.63
2019-03-27T20:55:31.085Z,11.85
2019-03-27T20:58:01.015Z,12.45
2019-03-27T21:00:30.611Z,12.23
2019-03-27T21:03:00.609Z,11.85
2019-03-27T21:05:30.314Z,11.33
2019-03-27T21:08:00.174Z,12.55
2019-03-27T21:10:29.938Z,11.95
2019-03-27T21:12:59.790Z,11.95
2019-03-27T21:15:29.539Z,12.28
2019-03-27T21:17:59.244Z,12.80
2019-03-27T21:20:28.976Z,13.13
2019-03-27T21:22:58.748Z,12.90
2019-03-27T21:25:28.316Z,12.47
2019-03-27T21:27:58.042Z,13.50
2019-03-27T21:30:27.818Z,13.08
2019-03-27T21:32:57.423Z,12.88
2019-03-27T21:35:27.066Z,13.48
2019-03-27T21:37:56.699Z,12.90
2019-03-27T21:40:26.406Z,12.43
2019-03-27T21:42:56.487Z,14.07
2019-03-27T21:45:26.330Z,13.68
2019-03-27T21:47:56.041Z,12.33
2019-03-27T21:50:25.639Z,13.25
2019-03-27T21:53:00.984Z,13.90
2019-03-27T21:55:26.837Z,13.20
2019-03-27T21:57:57.174Z,14.18
2019-03-27T22:00:40.418Z,14.93
2019-03-27T22:03:10.100Z,13.70
2019-03-27T22:05:39.902Z,14.10
2019-03-27T22:08:09.533Z,13.98
2019-03-27T22:10:39.154Z,14.50
2019-03-27T22:13:08.839Z,13.22
2019-03-27T22:15:38.514Z,14.05
2019-03-27T22:18:08.262Z,13.93
2019-03-27T22:20:39.617Z,12.58
2019-03-27T22:23:09.176Z,14.23
2019-03-27T22:25:38.829Z,13.80
2019-03-27T22:28:08.584Z,13.32
2019-03-27T22:30:38.339Z,14.53
2019-03-27T22:33:08.104Z,14.60
2019-03-27T22:35:37.786Z,13.78
2019-03-27T22:38:07.644Z,14.03
2019-03-27T22:40:37.355Z,14.50
2019-03-27T22:43:07.145Z,14.47
2019-03-27T22:45:36.834Z,14.55
2019-03-27T22:48:06.523Z,14.18
2019-03-27T22:50:36.211Z,14.85
2019-03-27T22:53:05.958Z,14.93
2019-03-27T22:55:48.584Z,15.75
2019-03-27T22:58:07.155Z,15.03
2019-03-27T23:00:51.223Z,15.18
2019-03-27T23:03:21.069Z,14.93
2019-03-27T23:05:51.042Z,15.15
2019-03-27T23:08:20.795Z,14.55
2019-03-27T23:10:50.598Z,14.38
2019-03-27T23:13:20.551Z,14.93
2019-03-27T23:15:50.104Z,14.25
2019-03-27T23:18:19.848Z,13.30
2019-03-27T23:20:49.632Z,13.68
2019-03-27T23:23:19.606Z,14.47
2019-03-27T23:26:02.171Z,13.93
2019-03-27T23:28:20.803Z,13.75
2019-03-27T23:30:50.615Z,13.58
2019-03-27T23:33:20.428Z,14.20
2019-03-27T23:35:50.054Z,14.78
2019-03-27T23:38:20.007Z,14.00
2019-03-27T23:40:49.634Z,14.40
2019-03-27T23:43:19.306Z,15.13
2019-03-27T23:45:48.900Z,13.35
2019-03-27T23:48:18.606Z,14.63
2019-03-27T23:50:48.289Z,15.32
2019-03-27T23:53:18.129Z,14.35
2019-03-27T23:55:47.852Z,16.20
2019-03-27T23:58:17.686Z,13.62
